sensor_id;sensor_type;location;lat;lon;timestamp;temperature;humidity
46752;DHT22;32497;48.936;9.270;2023-04-08T00:01:55;7.90;87.00
46752;DHT22;32497;48.936;9.270;2023-04-08T00:06:56;7.90;87.30
46752;DHT22;32497;48.936;9.270;2023-04-08T00:11:57;7.90;87.20
46752;DHT22;32497;48.936;9.270;2023-04-08T00:17:00;7.90;87.30
46752;DHT22;32497;48.936;9.270;2023-04-08T00:22:01;7.90;87.70
46752;DHT22;32497;48.936;9.270;2023-04-08T00:27:02;7.90;87.70
46752;DHT22;32497;48.936;9.270;2023-04-08T00:32:05;7.90;87.70
46752;DHT22;32497;48.936;9.270;2023-04-08T00:37:06;7.90;88.00
46752;DHT22;32497;48.936;9.270;2023-04-08T00:42:07;7.80;88.00
46752;DHT22;32497;48.936;9.270;2023-04-08T00:47:13;7.80;88.00
46752;DHT22;32497;48.936;9.270;2023-04-08T00:52:14;7.80;87.80
46752;DHT22;32497;48.936;9.270;2023-04-08T00:57:15;7.70;88.20
46752;DHT22;32497;48.936;9.270;2023-04-08T01:02:25;7.80;88.10
46752;DHT22;32497;48.936;9.270;2023-04-08T01:07:28;7.70;88.20
46752;DHT22;32497;48.936;9.270;2023-04-08T01:12:32;7.70;88.40
46752;DHT22;32497;48.936;9.270;2023-04-08T01:17:37;7.70;88.20
46752;DHT22;32497;48.936;9.270;2023-04-08T01:22:45;7.60;88.50
46752;DHT22;32497;48.936;9.270;2023-04-08T01:27:49;7.70;88.40
46752;DHT22;32497;48.936;9.270;2023-04-08T01:32:53;7.60;88.60
46752;DHT22;32497;48.936;9.270;2023-04-08T01:37:57;7.60;88.90
46752;DHT22;32497;48.936;9.270;2023-04-08T01:43:01;7.60;88.90
46752;DHT22;32497;48.936;9.270;2023-04-08T01:48:02;7.60;88.70
46752;DHT22;32497;48.936;9.270;2023-04-08T01:53:05;7.60;88.70
46752;DHT22;32497;48.936;9.270;2023-04-08T01:58:16;7.50;88.90
46752;DHT22;32497;48.936;9.270;2023-04-08T02:03:18;7.50;89.00
46752;DHT22;32497;48.936;9.270;2023-04-08T02:08:21;7.40;88.50
46752;DHT22;32497;48.936;9.270;2023-04-08T02:13:23;7.40;88.80
46752;DHT22;32497;48.936;9.270;2023-04-08T02:18:25;7.40;88.80
46752;DHT22;32497;48.936;9.270;2023-04-08T02:23:27;7.30;88.90
46752;DHT22;32497;48.936;9.270;2023-04-08T02:28:33;7.30;89.10
46752;DHT22;32497;48.936;9.270;2023-04-08T02:33:36;7.30;89.10
46752;DHT22;32497;48.936;9.270;2023-04-08T02:38:38;7.20;89.40
46752;DHT22;32497;48.936;9.270;2023-04-08T02:43:41;7.20;89.50
46752;DHT22;32497;48.936;9.270;2023-04-08T02:48:42;7.20;89.20
46752;DHT22;32497;48.936;9.270;2023-04-08T02:53:43;7.10;89.30
46752;DHT22;32497;48.936;9.270;2023-04-08T02:58:46;7.10;89.40
46752;DHT22;32497;48.936;9.270;2023-04-08T03:03:47;7.10;89.50
46752;DHT22;32497;48.936;9.270;2023-04-08T03:08:48;7.00;89.60
46752;DHT22;32497;48.936;9.270;2023-04-08T03:13:50;7.00;89.60
46752;DHT22;32497;48.936;9.270;2023-04-08T03:18:51;6.90;89.80
46752;DHT22;32497;48.936;9.270;2023-04-08T03:23:53;6.90;90.10
46752;DHT22;32497;48.936;9.270;2023-04-08T03:28:55;7.00;90.20
46752;DHT22;32497;48.936;9.270;2023-04-08T03:33:56;7.00;89.80
46752;DHT22;32497;48.936;9.270;2023-04-08T03:38:57;7.10;89.90
46752;DHT22;32497;48.936;9.270;2023-04-08T03:44:00;7.00;89.70
46752;DHT22;32497;48.936;9.270;2023-04-08T03:49:01;6.90;89.60
46752;DHT22;32497;48.936;9.270;2023-04-08T03:54:02;6.80;89.80
46752;DHT22;32497;48.936;9.270;2023-04-08T03:59:04;6.60;90.00
46752;DHT22;32497;48.936;9.270;2023-04-08T04:04:05;6.40;90.00
46752;DHT22;32497;48.936;9.270;2023-04-08T04:09:07;6.20;90.40
46752;DHT22;32497;48.936;9.270;2023-04-08T04:14:09;6.10;90.80
46752;DHT22;32497;48.936;9.270;2023-04-08T04:19:13;5.90;90.90
46752;DHT22;32497;48.936;9.270;2023-04-08T04:24:14;5.70;90.90
46752;DHT22;32497;48.936;9.270;2023-04-08T04:29:16;5.60;91.00
46752;DHT22;32497;48.936;9.270;2023-04-08T04:34:17;5.40;90.90
46752;DHT22;32497;48.936;9.270;2023-04-08T04:39:18;5.40;90.80
46752;DHT22;32497;48.936;9.270;2023-04-08T04:44:21;5.40;92.00
46752;DHT22;32497;48.936;9.270;2023-04-08T04:49:22;5.50;92.10
46752;DHT22;32497;48.936;9.270;2023-04-08T04:54:23;5.60;92.40
46752;DHT22;32497;48.936;9.270;2023-04-08T04:59:26;5.70;92.40
46752;DHT22;32497;48.936;9.270;2023-04-08T05:04:27;5.80;92.30
46752;DHT22;32497;48.936;9.270;2023-04-08T05:09:28;6.00;92.30
46752;DHT22;32497;48.936;9.270;2023-04-08T05:14:30;6.00;92.30
46752;DHT22;32497;48.936;9.270;2023-04-08T05:19:31;6.20;92.30
46752;DHT22;32497;48.936;9.270;2023-04-08T05:24:33;6.20;92.10
46752;DHT22;32497;48.936;9.270;2023-04-08T05:29:35;6.40;92.10
46752;DHT22;32497;48.936;9.270;2023-04-08T05:34:36;6.50;91.60
46752;DHT22;32497;48.936;9.270;2023-04-08T05:39:37;6.50;91.40
46752;DHT22;32497;48.936;9.270;2023-04-08T05:44:40;6.70;91.50
46752;DHT22;32497;48.936;9.270;2023-04-08T05:49:41;6.90;91.10
46752;DHT22;32497;48.936;9.270;2023-04-08T05:54:42;7.00;91.00
46752;DHT22;32497;48.936;9.270;2023-04-08T05:59:44;7.10;90.10
46752;DHT22;32497;48.936;9.270;2023-04-08T06:04:45;7.30;90.20
46752;DHT22;32497;48.936;9.270;2023-04-08T06:09:47;7.40;89.50
46752;DHT22;32497;48.936;9.270;2023-04-08T06:14:52;7.40;89.00
46752;DHT22;32497;48.936;9.270;2023-04-08T06:19:53;7.60;88.50
46752;DHT22;32497;48.936;9.270;2023-04-08T06:24:55;7.70;87.30
46752;DHT22;32497;48.936;9.270;2023-04-08T06:29:57;7.90;87.00
46752;DHT22;32497;48.936;9.270;2023-04-08T06:34:58;8.00;86.20
46752;DHT22;32497;48.936;9.270;2023-04-08T06:39:59;8.10;86.10
46752;DHT22;32497;48.936;9.270;2023-04-08T06:45:02;8.10;85.70
46752;DHT22;32497;48.936;9.270;2023-04-08T06:50:04;8.20;86.40
46752;DHT22;32497;48.936;9.270;2023-04-08T06:55:06;8.30;85.20
46752;DHT22;32497;48.936;9.270;2023-04-08T07:00:09;8.40;85.20
46752;DHT22;32497;48.936;9.270;2023-04-08T07:05:11;8.70;84.00
46752;DHT22;32497;48.936;9.270;2023-04-08T07:10:12;8.80;84.00
46752;DHT22;32497;48.936;9.270;2023-04-08T07:15:14;9.20;83.50
46752;DHT22;32497;48.936;9.270;2023-04-08T07:20:16;9.20;82.40
46752;DHT22;32497;48.936;9.270;2023-04-08T07:25:17;9.20;83.00
46752;DHT22;32497;48.936;9.270;2023-04-08T07:30:19;9.40;81.40
46752;DHT22;32497;48.936;9.270;2023-04-08T07:35:21;9.70;80.70
46752;DHT22;32497;48.936;9.270;2023-04-08T07:40:22;9.70;80.00
46752;DHT22;32497;48.936;9.270;2023-04-08T07:45:24;9.90;78.90
46752;DHT22;32497;48.936;9.270;2023-04-08T07:50:25;9.90;80.20
46752;DHT22;32497;48.936;9.270;2023-04-08T07:55:26;9.90;78.60
46752;DHT22;32497;48.936;9.270;2023-04-08T08:00:29;10.20;77.40
46752;DHT22;32497;48.936;9.270;2023-04-08T08:05:30;10.80;76.80
46752;DHT22;32497;48.936;9.270;2023-04-08T08:10:31;10.90;75.70
46752;DHT22;32497;48.936;9.270;2023-04-08T08:15:33;11.00;74.50
46752;DHT22;32497;48.936;9.270;2023-04-08T08:20:35;11.40;73.50
46752;DHT22;32497;48.936;9.270;2023-04-08T08:25:36;11.40;73.30
46752;DHT22;32497;48.936;9.270;2023-04-08T08:30:38;11.90;71.10
46752;DHT22;32497;48.936;9.270;2023-04-08T08:35:39;11.60;71.90
46752;DHT22;32497;48.936;9.270;2023-04-08T08:40:41;12.00;69.50
46752;DHT22;32497;48.936;9.270;2023-04-08T08:45:43;12.10;67.80
46752;DHT22;32497;48.936;9.270;2023-04-08T08:50:44;11.90;69.50
46752;DHT22;32497;48.936;9.270;2023-04-08T08:55:45;11.90;67.40
46752;DHT22;32497;48.936;9.270;2023-04-08T09:00:48;11.60;67.70
46752;DHT22;32497;48.936;9.270;2023-04-08T09:05:50;11.90;66.70
46752;DHT22;32497;48.936;9.270;2023-04-08T09:10:51;12.20;66.50
46752;DHT22;32497;48.936;9.270;2023-04-08T09:16:04;12.40;65.00
46752;DHT22;32497;48.936;9.270;2023-04-08T09:21:06;12.20;65.70
46752;DHT22;32497;48.936;9.270;2023-04-08T09:26:08;12.40;64.80
46752;DHT22;32497;48.936;9.270;2023-04-08T09:31:21;13.00;64.80
46752;DHT22;32497;48.936;9.270;2023-04-08T09:36:23;13.80;62.60
46752;DHT22;32497;48.936;9.270;2023-04-08T09:41:27;14.10;61.00
46752;DHT22;32497;48.936;9.270;2023-04-08T09:46:32;14.00;53.90
46752;DHT22;32497;48.936;9.270;2023-04-08T09:51:40;13.80;54.00
46752;DHT22;32497;48.936;9.270;2023-04-08T09:56:50;13.50;54.10
46752;DHT22;32497;48.936;9.270;2023-04-08T10:01:56;13.50;53.10
46752;DHT22;32497;48.936;9.270;2023-04-08T10:07:03;12.80;53.20
46752;DHT22;32497;48.936;9.270;2023-04-08T10:12:06;12.30;51.90
46752;DHT22;32497;48.936;9.270;2023-04-08T10:17:25;12.00;53.00
46752;DHT22;32497;48.936;9.270;2023-04-08T10:22:45;12.20;53.30
46752;DHT22;32497;48.936;9.270;2023-04-08T10:27:46;12.40;53.80
46752;DHT22;32497;48.936;9.270;2023-04-08T10:32:48;12.00;51.60
46752;DHT22;32497;48.936;9.270;2023-04-08T10:37:49;12.10;53.50
46752;DHT22;32497;48.936;9.270;2023-04-08T10:42:53;11.70;55.70
46752;DHT22;32497;48.936;9.270;2023-04-08T10:47:56;11.60;52.70
46752;DHT22;32497;48.936;9.270;2023-04-08T10:52:57;11.50;53.30
46752;DHT22;32497;48.936;9.270;2023-04-08T10:58:05;11.70;54.00
46752;DHT22;32497;48.936;9.270;2023-04-08T11:03:08;11.40;52.90
46752;DHT22;32497;48.936;9.270;2023-04-08T11:08:09;11.30;54.50
46752;DHT22;32497;48.936;9.270;2023-04-08T11:13:11;11.40;54.50
46752;DHT22;32497;48.936;9.270;2023-04-08T11:18:13;11.20;53.40
46752;DHT22;32497;48.936;9.270;2023-04-08T11:23:15;11.60;54.20
46752;DHT22;32497;48.936;9.270;2023-04-08T11:28:17;11.50;54.50
46752;DHT22;32497;48.936;9.270;2023-04-08T11:33:19;11.60;54.60
46752;DHT22;32497;48.936;9.270;2023-04-08T11:38:22;11.50;54.80
46752;DHT22;32497;48.936;9.270;2023-04-08T11:43:23;11.60;56.20
46752;DHT22;32497;48.936;9.270;2023-04-08T11:48:26;11.40;55.40
46752;DHT22;32497;48.936;9.270;2023-04-08T11:53:27;11.50;56.00
46752;DHT22;32497;48.936;9.270;2023-04-08T11:58:28;11.80;56.80
46752;DHT22;32497;48.936;9.270;2023-04-08T12:03:31;11.90;56.00
46752;DHT22;32497;48.936;9.270;2023-04-08T12:08:32;11.80;56.10
46752;DHT22;32497;48.936;9.270;2023-04-08T12:13:33;11.70;56.90
46752;DHT22;32497;48.936;9.270;2023-04-08T12:18:35;11.60;56.90
46752;DHT22;32497;48.936;9.270;2023-04-08T12:23:36;12.00;56.60
46752;DHT22;32497;48.936;9.270;2023-04-08T12:28:38;12.30;55.70
46752;DHT22;32497;48.936;9.270;2023-04-08T12:33:40;13.20;53.70
46752;DHT22;32497;48.936;9.270;2023-04-08T12:38:41;13.70;52.50
46752;DHT22;32497;48.936;9.270;2023-04-08T12:43:42;14.70;49.20
46752;DHT22;32497;48.936;9.270;2023-04-08T12:48:45;14.40;48.80
46752;DHT22;32497;48.936;9.270;2023-04-08T12:53:46;13.90;51.10
46752;DHT22;32497;48.936;9.270;2023-04-08T12:58:47;13.70;51.50
46752;DHT22;32497;48.936;9.270;2023-04-08T13:03:49;13.70;50.60
46752;DHT22;32497;48.936;9.270;2023-04-08T13:08:50;13.90;51.00
46752;DHT22;32497;48.936;9.270;2023-04-08T13:13:51;13.60;52.00
46752;DHT22;32497;48.936;9.270;2023-04-08T13:18:54;13.40;51.90
46752;DHT22;32497;48.936;9.270;2023-04-08T13:23:55;13.30;51.90
46752;DHT22;32497;48.936;9.270;2023-04-08T13:28:56;12.70;53.30
46752;DHT22;32497;48.936;9.270;2023-04-08T13:33:59;12.50;54.60
46752;DHT22;32497;48.936;9.270;2023-04-08T13:39:00;12.30;54.60
46752;DHT22;32497;48.936;9.270;2023-04-08T13:44:01;12.70;54.20
46752;DHT22;32497;48.936;9.270;2023-04-08T13:49:03;13.30;52.20
46752;DHT22;32497;48.936;9.270;2023-04-08T13:54:04;13.40;50.40
46752;DHT22;32497;48.936;9.270;2023-04-08T13:59:05;13.30;52.50
46752;DHT22;32497;48.936;9.270;2023-04-08T14:04:08;14.00;50.80
46752;DHT22;32497;48.936;9.270;2023-04-08T14:09:09;14.40;47.00
46752;DHT22;32497;48.936;9.270;2023-04-08T14:14:10;14.40;47.30
46752;DHT22;32497;48.936;9.270;2023-04-08T14:19:13;13.50;49.40
46752;DHT22;32497;48.936;9.270;2023-04-08T14:24:14;13.20;50.50
46752;DHT22;32497;48.936;9.270;2023-04-08T14:29:15;13.30;50.10
46752;DHT22;32497;48.936;9.270;2023-04-08T14:34:17;13.30;51.30
46752;DHT22;32497;48.936;9.270;2023-04-08T14:39:18;12.90;52.90
46752;DHT22;32497;48.936;9.270;2023-04-08T14:44:19;12.80;54.00
46752;DHT22;32497;48.936;9.270;2023-04-08T14:49:22;12.60;55.00
46752;DHT22;32497;48.936;9.270;2023-04-08T14:54:23;12.40;55.10
46752;DHT22;32497;48.936;9.270;2023-04-08T14:59:24;12.10;57.00
46752;DHT22;32497;48.936;9.270;2023-04-08T15:04:27;11.90;57.00
46752;DHT22;32497;48.936;9.270;2023-04-08T15:09:28;11.90;57.60
46752;DHT22;32497;48.936;9.270;2023-04-08T15:14:29;11.80;57.90
46752;DHT22;32497;48.936;9.270;2023-04-08T15:19:31;11.80;58.40
46752;DHT22;32497;48.936;9.270;2023-04-08T15:24:32;11.90;57.40
46752;DHT22;32497;48.936;9.270;2023-04-08T15:29:33;12.00;57.40
46752;DHT22;32497;48.936;9.270;2023-04-08T15:34:36;12.20;56.60
46752;DHT22;32497;48.936;9.270;2023-04-08T15:39:37;12.40;55.90
46752;DHT22;32497;48.936;9.270;2023-04-08T15:44:38;12.20;58.00
46752;DHT22;32497;48.936;9.270;2023-04-08T15:49:40;11.90;58.30
46752;DHT22;32497;48.936;9.270;2023-04-08T15:54:41;11.60;60.70
46752;DHT22;32497;48.936;9.270;2023-04-08T15:59:43;11.30;60.60
46752;DHT22;32497;48.936;9.270;2023-04-08T16:04:45;11.40;61.00
46752;DHT22;32497;48.936;9.270;2023-04-08T16:09:46;11.60;61.60
46752;DHT22;32497;48.936;9.270;2023-04-08T16:14:47;11.50;62.00
46752;DHT22;32497;48.936;9.270;2023-04-08T16:19:50;11.20;62.40
46752;DHT22;32497;48.936;9.270;2023-04-08T16:24:51;11.20;63.30
46752;DHT22;32497;48.936;9.270;2023-04-08T16:29:52;11.10;62.90
46752;DHT22;32497;48.936;9.270;2023-04-08T16:34:55;10.90;63.90
46752;DHT22;32497;48.936;9.270;2023-04-08T16:39:56;11.00;63.30
46752;DHT22;32497;48.936;9.270;2023-04-08T16:44:57;11.10;63.40
46752;DHT22;32497;48.936;9.270;2023-04-08T16:50:00;11.10;64.50
46752;DHT22;32497;48.936;9.270;2023-04-08T16:55:01;11.10;64.30
46752;DHT22;32497;48.936;9.270;2023-04-08T17:00:03;11.00;64.30
46752;DHT22;32497;48.936;9.270;2023-04-08T17:05:06;10.90;64.50
46752;DHT22;32497;48.936;9.270;2023-04-08T17:10:08;10.80;65.50
46752;DHT22;32497;48.936;9.270;2023-04-08T17:15:10;10.70;65.00
46752;DHT22;32497;48.936;9.270;2023-04-08T17:20:12;10.60;66.00
46752;DHT22;32497;48.936;9.270;2023-04-08T17:25:13;10.60;66.20
46752;DHT22;32497;48.936;9.270;2023-04-08T17:30:14;10.50;66.90
46752;DHT22;32497;48.936;9.270;2023-04-08T17:35:17;10.40;66.50
46752;DHT22;32497;48.936;9.270;2023-04-08T17:40:18;10.10;65.60
46752;DHT22;32497;48.936;9.270;2023-04-08T17:45:19;9.90;67.10
46752;DHT22;32497;48.936;9.270;2023-04-08T17:50:21;9.90;67.30
46752;DHT22;32497;48.936;9.270;2023-04-08T17:55:32;9.80;67.60
46752;DHT22;32497;48.936;9.270;2023-04-08T18:00:33;9.70;67.50
46752;DHT22;32497;48.936;9.270;2023-04-08T18:05:35;9.60;68.20
46752;DHT22;32497;48.936;9.270;2023-04-08T18:10:37;9.50;68.30
46752;DHT22;32497;48.936;9.270;2023-04-08T18:15:38;9.50;68.50
46752;DHT22;32497;48.936;9.270;2023-04-08T18:20:40;9.40;68.80
46752;DHT22;32497;48.936;9.270;2023-04-08T18:25:44;9.40;68.90
46752;DHT22;32497;48.936;9.270;2023-04-08T18:30:49;9.40;68.90
46752;DHT22;32497;48.936;9.270;2023-04-08T18:35:52;9.40;69.10
46752;DHT22;32497;48.936;9.270;2023-04-08T18:40:53;9.40;69.10
46752;DHT22;32497;48.936;9.270;2023-04-08T18:45:54;9.40;68.90
46752;DHT22;32497;48.936;9.270;2023-04-08T18:50:56;9.40;69.00
46752;DHT22;32497;48.936;9.270;2023-04-08T18:55:57;9.40;69.30
46752;DHT22;32497;48.936;9.270;2023-04-08T19:00:58;9.30;69.50
46752;DHT22;32497;48.936;9.270;2023-04-08T19:06:04;9.30;69.50
46752;DHT22;32497;48.936;9.270;2023-04-08T19:11:06;9.40;69.20
46752;DHT22;32497;48.936;9.270;2023-04-08T19:16:07;9.30;69.80
46752;DHT22;32497;48.936;9.270;2023-04-08T19:21:09;9.30;69.90
46752;DHT22;32497;48.936;9.270;2023-04-08T19:26:11;9.30;70.10
46752;DHT22;32497;48.936;9.270;2023-04-08T19:31:15;9.30;71.60
46752;DHT22;32497;48.936;9.270;2023-04-08T19:36:17;9.20;72.30
46752;DHT22;32497;48.936;9.270;2023-04-08T19:41:18;9.10;72.60
46752;DHT22;32497;48.936;9.270;2023-04-08T19:46:19;9.10;72.00
46752;DHT22;32497;48.936;9.270;2023-04-08T19:51:22;9.10;72.30
46752;DHT22;32497;48.936;9.270;2023-04-08T19:56:23;9.00;72.60
46752;DHT22;32497;48.936;9.270;2023-04-08T20:01:24;9.00;73.20
46752;DHT22;32497;48.936;9.270;2023-04-08T20:06:27;8.90;73.40
46752;DHT22;32497;48.936;9.270;2023-04-08T20:11:28;8.80;72.40
46752;DHT22;32497;48.936;9.270;2023-04-08T20:16:29;8.80;72.90
46752;DHT22;32497;48.936;9.270;2023-04-08T20:21:31;8.70;73.00
46752;DHT22;32497;48.936;9.270;2023-04-08T20:26:33;8.70;73.90
46752;DHT22;32497;48.936;9.270;2023-04-08T20:31:34;8.60;73.40
46752;DHT22;32497;48.936;9.270;2023-04-08T20:36:36;8.60;73.30
46752;DHT22;32497;48.936;9.270;2023-04-08T20:41:37;8.60;73.90
46752;DHT22;32497;48.936;9.270;2023-04-08T20:46:38;8.50;73.80
46752;DHT22;32497;48.936;9.270;2023-04-08T20:51:41;8.50;73.90
46752;DHT22;32497;48.936;9.270;2023-04-08T20:56:42;8.40;73.90
46752;DHT22;32497;48.936;9.270;2023-04-08T21:01:43;8.30;74.50
46752;DHT22;32497;48.936;9.270;2023-04-08T21:06:47;8.10;74.80
46752;DHT22;32497;48.936;9.270;2023-04-08T21:11:48;7.90;75.50
46752;DHT22;32497;48.936;9.270;2023-04-08T21:16:49;7.70;76.90
46752;DHT22;32497;48.936;9.270;2023-04-08T21:21:51;7.60;77.30
46752;DHT22;32497;48.936;9.270;2023-04-08T21:26:52;7.50;77.90
46752;DHT22;32497;48.936;9.270;2023-04-08T21:31:54;7.20;78.20
46752;DHT22;32497;48.936;9.270;2023-04-08T21:36:56;7.10;79.40
46752;DHT22;32497;48.936;9.270;2023-04-08T21:41:57;7.00;79.80
46752;DHT22;32497;48.936;9.270;2023-04-08T21:46:58;6.90;80.20
46752;DHT22;32497;48.936;9.270;2023-04-08T21:52:01;6.90;79.70
46752;DHT22;32497;48.936;9.270;2023-04-08T21:57:02;6.80;79.90
46752;DHT22;32497;48.936;9.270;2023-04-08T22:02:03;6.60;80.60
46752;DHT22;32497;48.936;9.270;2023-04-08T22:07:05;6.20;81.40
46752;DHT22;32497;48.936;9.270;2023-04-08T22:12:08;6.20;82.00
46752;DHT22;32497;48.936;9.270;2023-04-08T22:17:09;6.10;82.30
46752;DHT22;32497;48.936;9.270;2023-04-08T22:22:11;6.00;82.50
46752;DHT22;32497;48.936;9.270;2023-04-08T22:27:12;5.80;82.70
46752;DHT22;32497;48.936;9.270;2023-04-08T22:32:13;5.70;83.30
46752;DHT22;32497;48.936;9.270;2023-04-08T22:37:16;5.60;83.50
46752;DHT22;32497;48.936;9.270;2023-04-08T22:42:17;5.50;84.00
46752;DHT22;32497;48.936;9.270;2023-04-08T22:47:18;5.50;84.30
46752;DHT22;32497;48.936;9.270;2023-04-08T22:52:21;5.50;84.00
46752;DHT22;32497;48.936;9.270;2023-04-08T22:57:22;5.50;84.20
46752;DHT22;32497;48.936;9.270;2023-04-08T23:02:23;5.60;84.60
46752;DHT22;32497;48.936;9.270;2023-04-08T23:07:25;5.70;84.40
46752;DHT22;32497;48.936;9.270;2023-04-08T23:12:26;5.70;83.90
46752;DHT22;32497;48.936;9.270;2023-04-08T23:17:28;5.70;84.00
46752;DHT22;32497;48.936;9.270;2023-04-08T23:22:30;5.70;84.30
46752;DHT22;32497;48.936;9.270;2023-04-08T23:27:31;5.60;84.10
46752;DHT22;32497;48.936;9.270;2023-04-08T23:32:33;5.50;84.40
46752;DHT22;32497;48.936;9.270;2023-04-08T23:37:35;5.40;84.80
46752;DHT22;32497;48.936;9.270;2023-04-08T23:42:37;5.50;85.00
46752;DHT22;32497;48.936;9.270;2023-04-08T23:47:38;5.70;84.40
46752;DHT22;32497;48.936;9.270;2023-04-08T23:52:40;5.90;83.90
46752;DHT22;32497;48.936;9.270;2023-04-08T23:57:41;5.90;83.30
